This is the latest recevied weather packets stored in our database for station/object CE1RLP-31. If no packets are shown the sender has not sent any weather packets the latest 10 day(s).
| Time | Temp. | Humidity | Pressure | Rain* | Wind** | Luminosity | Snow |
|---|---|---|---|---|---|---|---|
| 1777341146 | 5.56° C | 13% | 1099.4 hPa | - | - | - | - |
| 1777340246 | 6.11° C | 13% | 1099.4 hPa | - | - | - | - |
| 1777339346 | 6.11° C | 13% | 1099.5 hPa | - | - | - | - |
| 1777338446 | 6.11° C | 13% | 1099.5 hPa | - | - | - | - |
| 1777337546 | 6.11° C | 13% | 1099.4 hPa | - | - | - | - |
| 1777336645 | 6.11° C | 13% | 1099.3 hPa | - | - | - | - |
| 1777335745 | 6.67° C | 15% | 1099.1 hPa | - | - | - | - |
| 1777334845 | 6.67° C | 15% | 1099.1 hPa | - | - | - | - |
| 1777333945 | 7.22° C | 18% | 1099 hPa | - | - | - | - |
| 1777333045 | 7.22° C | 19% | 1099 hPa | - | - | - | - |
| 1777332145 | 7.78° C | 19% | 1098.8 hPa | - | - | - | - |
| 1777331245 | 7.78° C | 19% | 1098.8 hPa | - | - | - | - |
| 1777330345 | 8.89° C | 20% | 1098.8 hPa | - | - | - | - |
| 1777329445 | 9.44° C | 20% | 1098.7 hPa | - | - | - | - |
| 1777328545 | 10.56° C | 19% | 1098.8 hPa | - | - | - | - |
| 1777327645 | 11.11° C | 18% | 1098.8 hPa | - | - | - | - |
| 1777326746 | 11.11° C | 14% | 1098.7 hPa | - | - | - | - |
| 1777325846 | 11.67° C | 14% | 1098.7 hPa | - | - | - | - |
| 1777324946 | 11.67° C | 14% | 1098.7 hPa | - | - | - | - |
| 1777324046 | -1.11° C | 14% | 1084.9 hPa | - | - | - | - |
| 1777323146 | 11.67° C | 14% | 1098.8 hPa | - | - | - | - |
| 1777322246 | 12.22° C | 14% | 1098.8 hPa | - | - | - | - |
| 1777321346 | 12.22° C | 14% | 1098.7 hPa | - | - | - | - |
| 1777320445 | 12.78° C | 13% | 1098.9 hPa | - | - | - | - |
| 1777319545 | 12.78° C | 12% | 1098.9 hPa | - | - | - | - |
* Rain since midnight (hover to see other rain measurements)
** Current wind speed in m/s (hover to see current wind gust speed)